createdAt,value
2019-05-30T00:01:20.618Z,101886.69
2019-05-30T00:03:47.438Z,101882.77
2019-05-30T00:06:14.234Z,101886.24
2019-05-30T00:08:41.103Z,101887.55
2019-05-30T00:11:07.903Z,101891.47
2019-05-30T00:13:34.668Z,101897.11
2019-05-30T00:16:02.796Z,101891.42
2019-05-30T00:18:30.014Z,101898.37
2019-05-30T00:20:58.659Z,101903.17
2019-05-30T00:23:25.919Z,101899.72
2019-05-30T00:25:52.978Z,101906.67
2019-05-30T00:28:19.742Z,101904.48
2019-05-30T00:30:46.513Z,101905.31
2019-05-30T00:33:13.257Z,101903.93
2019-05-30T00:35:40.151Z,101904.35
2019-05-30T00:38:07.156Z,101905.19
2019-05-30T00:40:33.894Z,101906.00
2019-05-30T00:43:06.305Z,101904.70
2019-05-30T00:45:33.296Z,101902.95
2019-05-30T00:48:00.575Z,101903.39
2019-05-30T00:50:27.467Z,101902.09
2019-05-30T00:52:54.426Z,101901.22
2019-05-30T00:55:21.236Z,101899.45
2019-05-30T00:57:48.100Z,101901.14
2019-05-30T01:00:14.968Z,101902.03
2019-05-30T01:02:42.019Z,101901.56
2019-05-30T01:05:09.117Z,101899.79
2019-05-30T01:07:35.882Z,101900.63
2019-05-30T01:10:03.219Z,101904.09
2019-05-30T01:12:30.370Z,101899.27
2019-05-30T01:14:57.176Z,101897.51
2019-05-30T01:17:24.243Z,101900.10
2019-05-30T01:19:51.099Z,101896.57
2019-05-30T01:22:18.167Z,101897.85
2019-05-30T01:24:45.183Z,101898.70
2019-05-30T01:27:12.255Z,101900.00
2019-05-30T01:29:39.838Z,101906.09
2019-05-30T01:32:24.741Z,101905.23
2019-05-30T01:34:51.577Z,101905.16
2019-05-30T01:37:18.691Z,101896.84
2019-05-30T01:39:45.576Z,101899.44
2019-05-30T01:42:12.726Z,101891.55
2019-05-30T01:44:39.529Z,101898.05
2019-05-30T01:47:06.434Z,101896.74
2019-05-30T01:49:33.475Z,101896.27
2019-05-30T01:52:00.367Z,101897.88
2019-05-30T01:54:27.149Z,101893.03
2019-05-30T01:56:53.953Z,101899.97
2019-05-30T01:59:21.112Z,101897.30
2019-05-30T02:01:47.968Z,101902.13
2019-05-30T02:04:16.183Z,101903.01
2019-05-30T02:06:43.116Z,101897.30
2019-05-30T02:09:11.039Z,101904.71
2019-05-30T02:11:38.537Z,101903.80
2019-05-30T02:14:05.736Z,101896.34
2019-05-30T02:16:32.506Z,101900.08
2019-05-30T02:18:59.564Z,101900.89
2019-05-30T02:21:26.410Z,101896.05
2019-05-30T02:23:53.300Z,101904.66
2019-05-30T02:26:20.169Z,101894.09
2019-05-30T02:28:47.544Z,101896.20
2019-05-30T02:31:14.401Z,101891.03
2019-05-30T02:33:41.253Z,101904.39
2019-05-30T02:36:09.951Z,101898.99
2019-05-30T02:38:36.899Z,101898.17
2019-05-30T02:41:05.425Z,101897.78
2019-05-30T02:43:32.429Z,101900.33
2019-05-30T02:46:00.926Z,101901.69
2019-05-30T02:48:27.968Z,101900.87
2019-05-30T02:50:54.716Z,101903.91
2019-05-30T02:53:21.498Z,101904.36
2019-05-30T02:55:48.235Z,101915.80
2019-05-30T02:58:18.271Z,101918.30
2019-05-30T03:00:55.318Z,101921.41
2019-05-30T03:03:23.041Z,101923.09
2019-05-30T03:05:49.794Z,101920.81
2019-05-30T03:08:17.248Z,101917.26
2019-05-30T03:10:44.195Z,101924.57
2019-05-30T03:13:12.702Z,101924.15
2019-05-30T03:15:39.803Z,101928.16
2019-05-30T03:18:08.074Z,101932.98
2019-05-30T03:20:35.286Z,101925.61
2019-05-30T03:23:04.810Z,101935.69
2019-05-30T03:25:31.150Z,101934.95
2019-05-30T03:27:57.915Z,101934.11
2019-05-30T03:30:28.317Z,101935.04
2019-05-30T03:33:24.480Z,101937.71
2019-05-30T03:35:29.475Z,101938.62
2019-05-30T03:37:51.284Z,101944.81
2019-05-30T03:40:19.262Z,101938.73
2019-05-30T03:42:47.125Z,101943.16
2019-05-30T03:45:16.582Z,101938.81
2019-05-30T03:47:47.767Z,101947.22
2019-05-30T03:50:17.402Z,101941.06
2019-05-30T03:52:43.894Z,101950.63
2019-05-30T03:55:12.528Z,101942.88
2019-05-30T03:57:45.426Z,101949.02
2019-05-30T04:00:24.502Z,101948.70
2019-05-30T04:03:03.105Z,101947.47
2019-05-30T04:05:35.287Z,101942.34
2019-05-30T04:08:03.540Z,101943.78
2019-05-30T04:10:37.480Z,101942.72
2019-05-30T04:13:32.750Z,101952.89
2019-05-30T04:15:59.654Z,101954.40
2019-05-30T04:18:26.530Z,101950.20
2019-05-30T04:20:53.520Z,101951.22
2019-05-30T04:23:20.436Z,101944.37
2019-05-30T04:25:47.180Z,101944.44
2019-05-30T04:28:14.145Z,101939.78
2019-05-30T04:30:42.411Z,101947.34
2019-05-30T04:33:19.277Z,101949.19
2019-05-30T04:35:38.155Z,101947.94
2019-05-30T04:38:04.907Z,101954.13
2019-05-30T04:40:31.685Z,101956.01
2019-05-30T04:42:58.442Z,101951.70
2019-05-30T04:45:27.970Z,101962.66
2019-05-30T04:47:54.197Z,101960.13
2019-05-30T04:50:21.064Z,101962.41
2019-05-30T04:52:48.296Z,101959.00
2019-05-30T04:55:17.737Z,101958.59
2019-05-30T04:57:43.711Z,101956.48
2019-05-30T05:00:12.994Z,101956.98
2019-05-30T05:02:41.584Z,101959.63
2019-05-30T05:05:08.604Z,101966.66
2019-05-30T05:07:35.367Z,101962.34
2019-05-30T05:10:02.160Z,101956.64
2019-05-30T05:12:30.126Z,101951.38
2019-05-30T05:14:56.890Z,101954.88
2019-05-30T05:17:24.970Z,101951.34
2019-05-30T05:19:52.586Z,101945.65
2019-05-30T05:22:21.174Z,101952.17
2019-05-30T05:24:48.837Z,101954.73
2019-05-30T05:27:17.720Z,101953.78
2019-05-30T05:29:44.404Z,101956.77
2019-05-30T05:32:12.360Z,101959.73
2019-05-30T05:34:40.200Z,101959.20
2019-05-30T05:37:07.125Z,101953.84
2019-05-30T05:39:34.149Z,101959.87
2019-05-30T05:42:00.898Z,101954.02
2019-05-30T05:44:28.727Z,101957.30
2019-05-30T05:46:55.719Z,101961.09
2019-05-30T05:49:22.670Z,101963.55
2019-05-30T05:51:49.542Z,101962.47
2019-05-30T05:54:16.785Z,101957.48
2019-05-30T05:56:43.694Z,101963.30
2019-05-30T05:59:10.558Z,101965.23
2019-05-30T06:01:37.314Z,101968.15
2019-05-30T06:04:12.978Z,101968.44
2019-05-30T06:06:33.142Z,101956.44
2019-05-30T06:09:00.037Z,101958.45
2019-05-30T06:11:26.787Z,101955.42
2019-05-30T06:13:53.771Z,101962.37
2019-05-30T06:16:20.414Z,101958.70
2019-05-30T06:18:47.546Z,101962.14
2019-05-30T06:21:14.663Z,101957.38
2019-05-30T06:23:45.431Z,101961.08
2019-05-30T06:26:10.654Z,101957.06
2019-05-30T06:28:37.569Z,101971.45
2019-05-30T06:31:04.435Z,101960.66
2019-05-30T06:33:31.335Z,101963.56
2019-05-30T06:35:58.235Z,101961.31
2019-05-30T06:38:25.308Z,101960.30
2019-05-30T06:40:52.313Z,101960.88
2019-05-30T06:43:19.860Z,101959.61
2019-05-30T06:45:47.252Z,101959.63
2019-05-30T06:48:14.145Z,101968.86
2019-05-30T06:50:41.007Z,101969.23
2019-05-30T06:53:08.155Z,101962.72
2019-05-30T06:55:35.101Z,101966.19
2019-05-30T06:58:02.486Z,101964.30
2019-05-30T07:00:30.303Z,101959.89
2019-05-30T07:02:57.192Z,101962.52
2019-05-30T07:05:25.795Z,101959.09
2019-05-30T07:07:53.052Z,101962.86
2019-05-30T07:10:20.024Z,101955.24
2019-05-30T07:12:46.910Z,101953.95
2019-05-30T07:15:14.325Z,101955.80
2019-05-30T07:17:41.197Z,101955.70
2019-05-30T07:20:08.156Z,101954.10
2019-05-30T07:22:35.383Z,101948.06
2019-05-30T07:25:02.329Z,101953.48
2019-05-30T07:27:29.928Z,101952.88
2019-05-30T07:29:56.895Z,101945.41
2019-05-30T07:32:24.042Z,101946.65
2019-05-30T07:35:05.505Z,101946.20
2019-05-30T07:37:19.599Z,101944.48
2019-05-30T07:39:46.500Z,101943.13
2019-05-30T07:42:13.412Z,101942.83
2019-05-30T07:44:40.307Z,101944.11
2019-05-30T07:47:07.431Z,101940.60
2019-05-30T07:49:34.674Z,101941.91
2019-05-30T07:52:01.508Z,101942.95
2019-05-30T07:54:28.839Z,101939.81
2019-05-30T07:56:55.799Z,101934.97
2019-05-30T07:59:22.601Z,101938.55
2019-05-30T08:01:49.484Z,101940.49
2019-05-30T08:04:16.938Z,101936.74
2019-05-30T08:06:43.813Z,101936.66
2019-05-30T08:09:10.727Z,101930.31
2019-05-30T08:11:37.598Z,101938.26
2019-05-30T08:14:04.520Z,101936.78
2019-05-30T08:16:31.782Z,101929.42
2019-05-30T08:18:58.596Z,101930.34
2019-05-30T08:21:25.470Z,101929.45
2019-05-30T08:23:52.567Z,101935.98
2019-05-30T08:26:19.424Z,101931.38
2019-05-30T08:28:46.293Z,101929.55
2019-05-30T08:31:13.416Z,101930.38
2019-05-30T08:33:40.576Z,101925.42
2019-05-30T08:36:07.633Z,101917.02
2019-05-30T08:38:35.352Z,101915.47
2019-05-30T08:41:02.374Z,101911.61
2019-05-30T08:43:29.329Z,101908.64
2019-05-30T08:45:58.807Z,101913.66
2019-05-30T08:48:25.756Z,101908.34
2019-05-30T08:50:52.584Z,101908.21
2019-05-30T08:53:19.513Z,101903.19
2019-05-30T08:55:46.609Z,101907.57
2019-05-30T08:58:13.538Z,101895.91
2019-05-30T09:00:40.429Z,101892.15
2019-05-30T09:03:07.340Z,101902.14
2019-05-30T09:05:35.843Z,101894.35
2019-05-30T09:08:03.481Z,101891.50
2019-05-30T09:10:31.219Z,101883.22
2019-05-30T09:12:58.464Z,101884.93
2019-05-30T09:15:26.146Z,101882.38
2019-05-30T09:17:53.406Z,101880.47
2019-05-30T09:20:20.829Z,101881.89
2019-05-30T09:22:47.778Z,101878.81
2019-05-30T09:25:15.352Z,101888.40
2019-05-30T09:27:42.942Z,101886.64
2019-05-30T09:30:13.439Z,101881.53
2019-05-30T09:32:41.323Z,101875.54
2019-05-30T09:35:10.502Z,101870.75
2019-05-30T09:37:37.314Z,101871.93
2019-05-30T09:40:05.399Z,101867.41
2019-05-30T09:42:32.343Z,101869.24
2019-05-30T09:45:02.189Z,101873.11
2019-05-30T09:47:29.108Z,101870.12
2019-05-30T09:49:56.254Z,101862.34
2019-05-30T09:52:23.258Z,101867.04
2019-05-30T09:54:50.358Z,101877.73
2019-05-30T09:57:17.134Z,101870.41
2019-05-30T09:59:45.500Z,101878.56
2019-05-30T10:02:13.341Z,101871.69
2019-05-30T10:04:40.107Z,101869.84
2019-05-30T10:07:06.930Z,101874.16
2019-05-30T10:09:33.786Z,101867.10
2019-05-30T10:12:00.722Z,101866.17
2019-05-30T10:14:27.499Z,101857.72
2019-05-30T10:16:56.526Z,101848.83
2019-05-30T10:19:23.409Z,101847.25
2019-05-30T10:21:51.681Z,101847.59
2019-05-30T10:24:19.067Z,101852.98
2019-05-30T10:26:47.137Z,101834.86
2019-05-30T10:29:14.062Z,101842.88
2019-05-30T10:31:41.009Z,101831.73
2019-05-30T10:34:07.934Z,101829.09
2019-05-30T10:36:43.762Z,101832.96
2019-05-30T10:39:05.665Z,101830.92
2019-05-30T10:41:32.504Z,101824.64
2019-05-30T10:43:59.280Z,101830.40
2019-05-30T10:46:26.151Z,101828.73
2019-05-30T10:48:54.757Z,101829.02
2019-05-30T10:51:22.030Z,101830.66
2019-05-30T10:53:50.353Z,101853.37
2019-05-30T10:56:18.168Z,101810.23
2019-05-30T10:58:46.534Z,101817.41
2019-05-30T11:01:13.869Z,101805.33
2019-05-30T11:03:40.774Z,101796.63
2019-05-30T11:06:17.449Z,101806.16
2019-05-30T11:08:44.816Z,101806.95
2019-05-30T11:11:11.730Z,101799.72
2019-05-30T11:13:38.641Z,101799.05
2019-05-30T11:16:05.405Z,101785.23
2019-05-30T11:18:32.243Z,101785.98
2019-05-30T11:20:59.438Z,101771.12
2019-05-30T11:23:26.855Z,101768.31
2019-05-30T11:25:54.720Z,101759.04
2019-05-30T11:28:21.720Z,101765.30
2019-05-30T11:30:48.659Z,101759.36
2019-05-30T11:33:15.566Z,101759.98
2019-05-30T11:35:42.409Z,101760.88
2019-05-30T11:38:09.317Z,101753.91
2019-05-30T11:40:36.162Z,101749.30
2019-05-30T11:43:03.024Z,101749.66
2019-05-30T11:45:30.229Z,101735.16
2019-05-30T11:47:58.054Z,101748.92
2019-05-30T11:50:25.269Z,101743.96
2019-05-30T11:52:52.130Z,101746.42
2019-05-30T11:55:18.934Z,101749.25
2019-05-30T11:57:45.862Z,101741.36
2019-05-30T12:00:12.932Z,101738.61
2019-05-30T12:02:39.806Z,101735.83
2019-05-30T12:05:07.430Z,101737.59
2019-05-30T12:07:36.670Z,101736.70
2019-05-30T12:10:03.340Z,101724.44
2019-05-30T12:12:30.332Z,101715.48
2019-05-30T12:14:57.434Z,101718.97
2019-05-30T12:17:24.708Z,101726.53
2019-05-30T12:19:51.632Z,101722.86
2019-05-30T12:22:19.381Z,101711.59
2019-05-30T12:24:46.353Z,101711.71
2019-05-30T12:27:13.283Z,101716.71
2019-05-30T12:29:40.628Z,101710.61
2019-05-30T12:32:07.690Z,101710.61
2019-05-30T12:34:34.467Z,101702.46
2019-05-30T12:37:02.829Z,101707.13
2019-05-30T12:39:30.098Z,101703.38
2019-05-30T12:41:56.988Z,101696.42
2019-05-30T12:44:23.915Z,101695.53
2019-05-30T12:46:50.712Z,101698.39
2019-05-30T12:49:17.604Z,101695.07
2019-05-30T12:51:44.808Z,101686.14
2019-05-30T12:54:11.963Z,101686.44
2019-05-30T12:56:38.894Z,101682.53
2019-05-30T12:59:06.903Z,101686.09
2019-05-30T13:01:34.086Z,101681.61
2019-05-30T13:04:03.108Z,101678.91
2019-05-30T13:06:30.740Z,101672.27
2019-05-30T13:08:57.699Z,101686.14
2019-05-30T13:11:24.888Z,101675.05
2019-05-30T13:13:52.019Z,101666.03
2019-05-30T13:16:19.586Z,101667.17
2019-05-30T13:18:46.537Z,101671.36
2019-05-30T13:21:13.783Z,101663.86
2019-05-30T13:23:41.459Z,101672.73
2019-05-30T13:26:08.374Z,101669.09
2019-05-30T13:28:35.256Z,101669.91
2019-05-30T13:31:02.331Z,101668.93
2019-05-30T13:33:29.180Z,101662.99
2019-05-30T13:35:56.988Z,101673.56
2019-05-30T13:38:26.703Z,101670.40
2019-05-30T13:40:53.047Z,101666.25
2019-05-30T13:43:19.833Z,101668.09
2019-05-30T13:45:47.036Z,101652.20
2019-05-30T13:48:13.805Z,101647.41
2019-05-30T13:50:40.860Z,101644.76
2019-05-30T13:53:07.757Z,101641.71
2019-05-30T13:55:34.710Z,101641.91
2019-05-30T13:58:01.631Z,101627.06
2019-05-30T14:00:28.576Z,101649.59
2019-05-30T14:02:55.398Z,101647.20
2019-05-30T14:05:22.281Z,101645.25
2019-05-30T14:07:49.218Z,101653.09
2019-05-30T14:10:16.184Z,101651.46
2019-05-30T14:12:42.998Z,101648.13
2019-05-30T14:15:13.798Z,101652.48
2019-05-30T14:17:39.778Z,101647.27
2019-05-30T14:20:07.056Z,101648.09
2019-05-30T14:22:34.488Z,101645.17
2019-05-30T14:25:01.526Z,101641.59
2019-05-30T14:27:28.482Z,101644.95
2019-05-30T14:29:55.404Z,101640.77
2019-05-30T14:32:22.674Z,101642.12
2019-05-30T14:34:49.672Z,101621.58
2019-05-30T14:37:16.967Z,101624.81
2019-05-30T14:39:43.915Z,101635.70
2019-05-30T14:42:11.218Z,101631.29
2019-05-30T14:44:38.667Z,101639.41
2019-05-30T14:47:06.396Z,101617.89
2019-05-30T14:49:33.542Z,101621.42
2019-05-30T14:52:00.327Z,101624.76
2019-05-30T14:54:27.140Z,101621.41
2019-05-30T14:56:53.941Z,101623.52
2019-05-30T14:59:21.005Z,101615.97
2019-05-30T15:01:47.883Z,101617.53
2019-05-30T15:04:14.963Z,101623.69
2019-05-30T15:06:41.755Z,101622.80
2019-05-30T15:09:17.808Z,101627.20
2019-05-30T15:11:37.689Z,101620.82
2019-05-30T15:14:04.663Z,101617.05
2019-05-30T15:16:31.461Z,101621.45
2019-05-30T15:18:58.631Z,101610.65
2019-05-30T15:21:25.452Z,101608.50
2019-05-30T15:23:52.228Z,101609.21
2019-05-30T15:26:19.137Z,101609.00
2019-05-30T15:28:46.161Z,101607.70
2019-05-30T15:31:13.089Z,101609.39
2019-05-30T15:33:39.942Z,101599.89
2019-05-30T15:36:06.882Z,101614.29
2019-05-30T15:38:33.749Z,101605.33
2019-05-30T15:41:00.558Z,101604.20
2019-05-30T15:43:27.428Z,101596.98
2019-05-30T15:45:54.248Z,101598.89
2019-05-30T15:48:23.724Z,101597.02
2019-05-30T15:50:51.354Z,101604.99
2019-05-30T15:53:19.881Z,101609.45
2019-05-30T15:55:48.795Z,101609.53
2019-05-30T15:58:18.037Z,101603.64
2019-05-30T16:00:45.510Z,101606.34
2019-05-30T16:03:14.681Z,101597.19
2019-05-30T16:05:43.011Z,101604.39
2019-05-30T16:08:13.383Z,101596.07
2019-05-30T16:10:40.132Z,101601.85
2019-05-30T16:13:07.545Z,101601.55
2019-05-30T16:15:34.531Z,101601.44
2019-05-30T16:18:01.496Z,101599.70
2019-05-30T16:20:29.162Z,101598.35
2019-05-30T16:22:56.292Z,101596.44
2019-05-30T16:25:23.254Z,101597.58
2019-05-30T16:27:50.303Z,101603.42
2019-05-30T16:30:22.100Z,101594.81
2019-05-30T16:32:46.394Z,101601.72
2019-05-30T16:35:14.022Z,101596.86
2019-05-30T16:37:41.092Z,101603.42
2019-05-30T16:40:09.151Z,101601.78
2019-05-30T16:42:36.143Z,101603.48
2019-05-30T16:45:05.148Z,101605.95
2019-05-30T16:47:32.147Z,101601.15
2019-05-30T16:49:59.067Z,101604.24
2019-05-30T16:52:27.243Z,101601.10
2019-05-30T16:54:54.228Z,101596.82
2019-05-30T16:57:22.618Z,101595.77
2019-05-30T16:59:49.497Z,101596.17
2019-05-30T17:02:17.019Z,101596.82
2019-05-30T17:04:44.083Z,101593.17
2019-05-30T17:07:10.843Z,101593.77
2019-05-30T17:09:37.890Z,101586.03
2019-05-30T17:12:04.773Z,101591.59
2019-05-30T17:14:32.454Z,101595.38
2019-05-30T17:17:02.867Z,101590.97
2019-05-30T17:19:28.793Z,101585.72
2019-05-30T17:21:55.553Z,101585.78
2019-05-30T17:24:23.004Z,101584.82
2019-05-30T17:26:51.992Z,101575.80
2019-05-30T17:29:19.725Z,101585.04
2019-05-30T17:31:46.597Z,101584.28
2019-05-30T17:34:13.529Z,101584.59
2019-05-30T17:36:40.296Z,101596.05
2019-05-30T17:39:07.726Z,101605.27
2019-05-30T17:41:34.597Z,101607.84
2019-05-30T17:44:01.513Z,101607.66
2019-05-30T17:46:29.847Z,101606.86
2019-05-30T17:48:57.177Z,101605.61
2019-05-30T17:51:23.854Z,101604.05
2019-05-30T17:53:51.199Z,101600.37
2019-05-30T17:56:17.988Z,101606.16
2019-05-30T17:58:44.989Z,101607.39
2019-05-30T18:01:11.757Z,101611.11
2019-05-30T18:03:38.975Z,101610.88
2019-05-30T18:06:05.822Z,101608.20
2019-05-30T18:08:32.742Z,101608.20
2019-05-30T18:10:59.397Z,101610.69
2019-05-30T18:13:27.106Z,101614.92
2019-05-30T18:15:54.083Z,101621.35
2019-05-30T18:18:21.208Z,101625.24
2019-05-30T18:20:48.888Z,101627.85
2019-05-30T18:23:15.869Z,101629.06
2019-05-30T18:25:44.820Z,101633.08
2019-05-30T18:28:11.724Z,101629.53
2019-05-30T18:30:41.799Z,101634.66
2019-05-30T18:33:08.768Z,101635.76
2019-05-30T18:35:35.710Z,101637.50
2019-05-30T18:38:02.997Z,101632.30
2019-05-30T18:40:31.446Z,101633.17
2019-05-30T18:42:58.382Z,101638.92
2019-05-30T18:45:34.618Z,101635.45
2019-05-30T18:48:01.533Z,101639.06
2019-05-30T18:50:29.351Z,101637.58
2019-05-30T18:52:56.460Z,101637.80
2019-05-30T18:55:24.548Z,101639.45
2019-05-30T18:57:51.683Z,101638.66
2019-05-30T19:00:18.922Z,101638.77
2019-05-30T19:02:45.772Z,101639.30
2019-05-30T19:05:12.785Z,101644.17
2019-05-30T19:07:39.808Z,101639.84
2019-05-30T19:10:07.092Z,101643.84
2019-05-30T19:12:34.465Z,101646.62
2019-05-30T19:15:01.350Z,101650.37
2019-05-30T19:17:29.562Z,101656.41
2019-05-30T19:19:56.587Z,101659.69
2019-05-30T19:22:23.352Z,101661.39
2019-05-30T19:24:50.543Z,101657.95
2019-05-30T19:27:17.710Z,101667.05
2019-05-30T19:29:54.192Z,101668.78
2019-05-30T19:32:21.886Z,101678.17
2019-05-30T19:34:48.714Z,101675.70
2019-05-30T19:37:15.881Z,101679.44
2019-05-30T19:39:42.637Z,101682.12
2019-05-30T19:42:09.469Z,101680.35
2019-05-30T19:44:41.097Z,101687.20
2019-05-30T19:47:05.557Z,101687.03
2019-05-30T19:49:32.531Z,101685.66
2019-05-30T19:51:59.340Z,101691.47
2019-05-30T19:54:28.896Z,101689.97
2019-05-30T19:56:55.755Z,101695.74
2019-05-30T19:59:22.801Z,101690.53
2019-05-30T20:01:49.614Z,101694.52
2019-05-30T20:04:16.685Z,101689.80
2019-05-30T20:06:43.530Z,101694.05
2019-05-30T20:09:10.381Z,101694.91
2019-05-30T20:11:37.350Z,101697.31
2019-05-30T20:14:04.278Z,101703.98
2019-05-30T20:16:31.434Z,101699.27
2019-05-30T20:18:58.913Z,101698.23
2019-05-30T20:21:25.993Z,101700.58
2019-05-30T20:23:58.457Z,101701.83
2019-05-30T20:26:21.930Z,101700.18
2019-05-30T20:28:48.884Z,101696.48
2019-05-30T20:31:15.815Z,101694.44
2019-05-30T20:33:42.755Z,101689.85
2019-05-30T20:36:09.924Z,101687.94
2019-05-30T20:38:37.158Z,101691.41
2019-05-30T20:41:03.955Z,101691.78
2019-05-30T20:43:33.174Z,101697.12
2019-05-30T20:45:59.472Z,101693.73
2019-05-30T20:48:26.346Z,101699.01
2019-05-30T20:50:53.417Z,101692.27
2019-05-30T20:53:20.697Z,101700.14
2019-05-30T20:55:47.801Z,101694.12
2019-05-30T20:58:14.564Z,101693.84
2019-05-30T21:00:42.191Z,101696.43
2019-05-30T21:03:09.329Z,101691.77
2019-05-30T21:05:37.718Z,101702.97
2019-05-30T21:08:05.999Z,101701.33
2019-05-30T21:10:34.930Z,101703.49
2019-05-30T21:13:02.174Z,101699.55
2019-05-30T21:15:31.534Z,101700.37
2019-05-30T21:17:59.169Z,101702.92
2019-05-30T21:20:26.297Z,101707.61
2019-05-30T21:22:53.137Z,101705.40
2019-05-30T21:25:20.380Z,101707.17
2019-05-30T21:27:47.435Z,101708.52
2019-05-30T21:30:14.477Z,101708.98
2019-05-30T21:32:42.092Z,101708.43
2019-05-30T21:35:10.239Z,101710.17
2019-05-30T21:37:37.690Z,101710.48
2019-05-30T21:40:05.253Z,101712.13
2019-05-30T21:42:32.042Z,101713.31
2019-05-30T21:44:59.236Z,101709.62
2019-05-30T21:47:26.105Z,101711.22
2019-05-30T21:49:53.008Z,101717.28
2019-05-30T21:52:20.268Z,101714.97
2019-05-30T21:54:47.858Z,101709.45
2019-05-30T21:57:14.866Z,101707.48
2019-05-30T21:59:42.339Z,101709.97
2019-05-30T22:02:09.402Z,101706.19
2019-05-30T22:04:36.357Z,101705.94
2019-05-30T22:07:03.230Z,101703.06
2019-05-30T22:09:30.148Z,101708.56
2019-05-30T22:11:57.251Z,101703.03
2019-05-30T22:14:24.178Z,101704.97
2019-05-30T22:16:52.188Z,101705.61
2019-05-30T22:19:19.309Z,101707.58
2019-05-30T22:21:46.242Z,101704.66
2019-05-30T22:24:13.040Z,101713.61
2019-05-30T22:26:39.855Z,101712.01
2019-05-30T22:29:06.661Z,101708.56
2019-05-30T22:31:33.577Z,101706.95
2019-05-30T22:34:00.514Z,101710.17
2019-05-30T22:36:28.245Z,101710.73
2019-05-30T22:38:55.180Z,101711.22
2019-05-30T22:41:22.052Z,101715.34
2019-05-30T22:43:48.855Z,101708.36
2019-05-30T22:46:15.762Z,101712.86
2019-05-30T22:48:44.325Z,101717.43
2019-05-30T22:51:11.312Z,101718.92
2019-05-30T22:53:38.086Z,101722.13
2019-05-30T22:56:05.248Z,101717.87
2019-05-30T22:58:32.203Z,101715.31
2019-05-30T23:00:59.219Z,101717.65
2019-05-30T23:03:26.180Z,101719.04
2019-05-30T23:05:53.371Z,101724.47
2019-05-30T23:08:20.383Z,101718.33
2019-05-30T23:10:47.650Z,101717.06
2019-05-30T23:13:14.717Z,101714.13
2019-05-30T23:15:41.783Z,101715.48
2019-05-30T23:18:08.716Z,101706.31
2019-05-30T23:20:35.649Z,101705.98
2019-05-30T23:23:02.430Z,101711.58
2019-05-30T23:25:29.343Z,101710.34
2019-05-30T23:27:56.236Z,101709.12
2019-05-30T23:30:23.457Z,101710.47
2019-05-30T23:32:50.538Z,101709.12
2019-05-30T23:35:17.536Z,101710.14
2019-05-30T23:37:44.530Z,101715.92
2019-05-30T23:40:11.481Z,101722.16
2019-05-30T23:42:38.402Z,101723.59
2019-05-30T23:45:05.889Z,101717.45
2019-05-30T23:47:33.447Z,101725.09
2019-05-30T23:50:00.463Z,101725.64
2019-05-30T23:52:27.358Z,101723.50
2019-05-30T23:54:54.285Z,101718.77
2019-05-30T23:57:21.481Z,101721.96
2019-05-30T23:59:48.249Z,101713.62
